Time;durP1;ratioP1;P1;durP2;ratioP2;P2;SDS_P1;SDS_P2;PMS_P1;PMS_P2;Temp;Humidity;BMP_temperature;BMP_pressure;BME280_temperature;BME280_humidity;BME280_pressure;Samples;Min_cycle;Max_cycle;Signal;HPM_P1;HPM_P2
2022/09/24 00:00:51;;;;;;;9.48;3.15;;;;;;;12.73;75.06;100758.75;5012941;28;20111;-70
2022/09/24 00:03:20;;;;;;;7.45;3.25;;;;;;;13.02;73.82;100811.53;5013147;28;20026;-73
2022/09/24 00:05:46;;;;;;;13.82;3.75;;;;;;;12.95;75.54;100804.38;5013190;28;20030;-70
2022/09/24 00:08:14;;;;;;;8.25;3.67;;;;;;;12.93;76.14;100800.84;5012890;28;20148;-70
2022/09/24 00:10:42;;;;;;;8.60;3.20;;;;;;;12.61;76.42;100767.00;5012930;28;20034;-70
2022/09/24 00:13:11;;;;;;;6.50;3.33;;;;;;;12.45;78.96;100807.06;5013300;28;20087;-73
2022/09/24 00:15:45;;;;;;;4.53;3.30;;;;;;;12.02;82.31;100795.16;5012744;28;20038;-73
2022/09/24 00:18:12;;;;;;;5.47;3.60;;;;;;;11.86;83.49;100796.28;5012595;28;20279;-69
2022/09/24 00:20:38;;;;;;;6.13;3.42;;;;;;;11.80;83.84;100800.41;5012690;28;20030;-69
2022/09/24 00:23:05;;;;;;;7.43;3.58;;;;;;;11.77;84.40;100800.28;5012649;28;20025;-70
2022/09/24 00:28:15;;;;;;;7.45;3.78;;;;;;;11.80;81.84;100752.94;5012633;28;20037;-69
2022/09/24 00:30:44;;;;;;;8.75;3.75;;;;;;;12.10;80.88;100781.69;5012532;28;20072;-70
2022/09/24 00:33:10;;;;;;;7.68;3.97;;;;;;;12.03;79.50;100802.09;5012527;28;20033;-69
2022/09/24 00:35:38;;;;;;;11.20;4.75;;;;;;;11.63;79.98;100799.75;5012555;28;20068;-70
2022/09/24 00:38:05;;;;;;;8.48;3.22;;;;;;;10.77;82.31;100801.53;5012361;28;20022;-71
2022/09/24 00:40:36;;;;;;;7.55;3.55;;;;;;;10.43;83.52;100813.91;5012481;28;20075;-69
2022/09/24 00:43:19;;;;;;;4.38;2.88;;;;;;;10.71;82.07;100802.16;5012460;28;20092;-69
2022/09/24 00:45:45;;;;;;;4.20;3.47;;;;;;;10.68;81.68;100813.22;5012376;28;20054;-74
2022/09/24 00:48:11;;;;;;;4.72;3.17;;;;;;;10.52;80.27;100762.66;5012128;28;20416;-69
2022/09/24 00:50:39;;;;;;;5.38;2.70;;;;;;;10.39;78.72;100760.34;5012046;28;20026;-73
2022/09/24 00:53:16;;;;;;;6.82;3.28;;;;;;;10.60;77.75;100803.41;5011954;28;20041;-70
2022/09/24 00:55:44;;;;;;;4.68;3.15;;;;;;;10.62;77.24;100809.53;5011999;28;20482;-70
2022/09/24 00:58:13;;;;;;;5.28;3.13;;;;;;;10.81;76.73;100804.28;5012202;28;20041;-70
2022/09/24 01:00:45;;;;;;;4.78;2.97;;;;;;;10.96;76.05;100800.56;5012039;28;20041;-70
2022/09/24 01:03:15;;;;;;;3.90;3.03;;;;;;;10.93;75.63;100816.84;5011772;28;20481;-70
2022/09/24 01:05:40;;;;;;;5.30;3.20;;;;;;;10.84;75.70;100811.28;5011170;28;20127;-70
2022/09/24 01:08:09;;;;;;;5.15;3.20;;;;;;;10.87;75.21;100810.56;5011646;28;20516;-70
2022/09/24 01:10:49;;;;;;;4.13;3.10;;;;;;;10.84;74.98;100813.84;5016145;28;20033;-70
2022/09/24 01:13:41;;;;;;;4.90;3.15;;;;;;;10.84;75.19;100816.44;5011989;28;20044;-70
2022/09/24 01:16:15;;;;;;;4.40;3.10;;;;;;;10.89;75.03;100814.97;5009376;28;20034;-70
2022/09/24 01:18:48;;;;;;;4.78;3.35;;;;;;;10.94;74.93;100812.53;5007601;28;20117;-74
2022/09/24 01:21:26;;;;;;;5.47;3.40;;;;;;;10.76;74.97;100808.38;5006182;28;20046;-70
2022/09/24 01:24:14;;;;;;;4.25;3.17;;;;;;;10.66;75.69;100801.06;5008246;28;20044;-72
2022/09/24 01:26:42;;;;;;;7.07;3.25;;;;;;;10.43;76.41;100803.56;5008630;28;20041;-73
2022/09/24 01:29:30;;;;;;;4.95;3.83;;;;;;;10.38;76.97;100799.91;5008421;28;20030;-72
2022/09/24 01:32:23;;;;;;;4.65;3.22;;;;;;;10.30;76.83;100796.06;5008624;28;20500;-71
2022/09/24 01:34:58;;;;;;;4.57;3.30;;;;;;;9.94;77.32;100798.81;5008447;28;20052;-72
2022/09/24 01:37:27;;;;;;;5.05;3.80;;;;;;;10.11;77.91;100803.00;5008297;28;20089;-73
2022/09/24 01:39:55;;;;;;;4.03;3.30;;;;;;;10.21;77.71;100801.72;5008603;28;20049;-72
2022/09/24 01:42:23;;;;;;;6.45;3.80;;;;;;;10.22;78.30;100807.75;5008309;28;20623;-70
2022/09/24 01:44:50;;;;;;;5.25;3.67;;;;;;;10.31;77.86;100808.19;5008616;28;20026;-70
2022/09/24 01:47:25;;;;;;;4.50;3.60;;;;;;;10.36;77.23;100796.38;5007957;28;20050;-72
2022/09/24 01:49:52;;;;;;;4.20;3.55;;;;;;;10.24;77.43;100778.63;5008342;28;20579;-71
2022/09/24 01:52:24;;;;;;;4.95;3.63;;;;;;;10.38;76.98;100787.00;5008595;28;20038;-74
2022/09/24 01:54:53;;;;;;;6.03;3.88;;;;;;;10.52;77.03;100803.94;5010722;28;20428;-70
2022/09/24 01:57:22;;;;;;;5.10;3.65;;;;;;;10.48;77.14;100807.22;5010678;28;20052;-70
2022/09/24 02:00:02;;;;;;;4.60;3.45;;;;;;;10.07;77.41;100774.44;5010374;28;20026;-70
2022/09/24 02:02:30;;;;;;;4.20;3.10;;;;;;;10.31;76.90;100805.59;5010535;28;20080;-71
2022/09/24 02:05:15;;;;;;;5.63;3.47;;;;;;;10.27;76.51;100814.91;5025504;28;20032;-72
2022/09/24 02:08:09;;;;;;;5.00;3.20;;;;;;;10.18;76.80;100812.78;5010463;28;20077;-70
2022/09/24 02:10:48;;;;;;;4.40;3.42;;;;;;;10.05;77.33;100795.00;5010991;28;20149;-70
2022/09/24 02:13:16;;;;;;;4.70;3.47;;;;;;;10.12;77.70;100817.69;5010483;28;20038;-70
2022/09/24 02:15:48;;;;;;;5.68;4.30;;;;;;;10.17;77.76;100817.91;5011596;28;20109;-74
2022/09/24 02:18:18;;;;;;;5.93;3.42;;;;;;;10.13;78.21;100822.03;5014508;28;20041;-74
2022/09/24 02:20:45;;;;;;;4.85;3.45;;;;;;;10.16;77.96;100826.44;5014443;28;20420;-71
2022/09/24 02:23:14;;;;;;;4.95;3.70;;;;;;;10.03;78.64;100832.72;5014618;28;20036;-71
2022/09/24 02:25:49;;;;;;;7.20;3.70;;;;;;;9.91;78.92;100827.06;5014521;28;20038;-70
2022/09/24 02:28:17;;;;;;;4.47;3.15;;;;;;;9.78;78.79;100812.69;5014503;28;20052;-70
2022/09/24 02:30:50;;;;;;;4.35;3.53;;;;;;;9.82;78.95;100838.69;5014106;28;20021;-72
2022/09/24 02:36:02;;;;;;;6.50;3.85;;;;;;;9.65;79.88;100831.88;5014476;28;20037;-72
2022/09/24 02:38:27;;;;;;;5.68;4.28;;;;;;;9.62;80.19;100842.03;5028499;28;20046;-73
2022/09/24 02:40:54;;;;;;;4.22;3.55;;;;;;;9.52;80.92;100844.19;5014281;28;20465;-70
2022/09/24 02:43:19;;;;;;;4.85;3.75;;;;;;;9.43;81.56;100843.75;5014308;28;20120;-75
2022/09/24 02:45:45;;;;;;;5.68;3.65;;;;;;;9.34;82.08;100830.44;5013935;28;20050;-70
2022/09/24 02:48:10;;;;;;;5.50;3.90;;;;;;;9.16;82.27;100813.28;5014187;28;20083;-74
2022/09/24 02:50:36;;;;;;;4.85;3.70;;;;;;;9.22;82.68;100849.66;5013981;28;20029;-72
2022/09/24 02:53:01;;;;;;;6.47;3.78;;;;;;;9.16;83.05;100833.91;5014379;28;20026;-69
2022/09/24 02:55:26;;;;;;;5.35;3.97;;;;;;;8.97;83.01;100810.63;5013946;28;20486;-72
2022/09/24 02:57:52;;;;;;;5.55;4.05;;;;;;;9.13;82.95;100846.59;5013820;28;20029;-70
2022/09/24 03:00:19;;;;;;;5.00;3.65;;;;;;;9.14;82.87;100856.13;5029162;28;20619;-70
2022/09/24 03:02:46;;;;;;;6.25;4.18;;;;;;;8.93;82.06;100813.88;5013917;28;20510;-69
2022/09/24 03:05:12;;;;;;;5.40;4.07;;;;;;;8.85;83.13;100854.69;5013988;28;20040;-70
2022/09/24 03:07:37;;;;;;;6.55;4.10;;;;;;;8.55;84.39;100844.59;5027714;28;20447;-72
2022/09/24 03:10:03;;;;;;;4.85;3.83;;;;;;;8.42;85.50;100850.75;5013627;28;20087;-71
2022/09/24 03:12:29;;;;;;;6.25;4.70;;;;;;;8.37;86.03;100854.78;5013311;28;20025;-71
2022/09/24 03:14:54;;;;;;;4.78;3.60;;;;;;;8.50;85.38;100849.50;5013821;28;20021;-72
2022/09/24 03:17:20;;;;;;;5.78;4.45;;;;;;;8.55;85.73;100852.34;5013811;28;20030;-73
2022/09/24 03:19:45;;;;;;;6.45;3.70;;;;;;;8.32;85.54;100808.22;5013734;28;20447;-72
2022/09/24 03:22:10;;;;;;;6.30;4.05;;;;;;;8.50;86.29;100852.09;5013248;28;20457;-70
2022/09/24 03:24:36;;;;;;;5.93;4.00;;;;;;;8.52;86.61;100853.06;5013436;28;20034;-72
2022/09/24 03:27:01;;;;;;;8.00;4.35;;;;;;;8.63;86.26;100857.88;5011876;28;20029;-71
2022/09/24 03:30:58;;;;;;;9.63;4.45;;;;;;;8.56;86.09;100847.25;5013348;28;20112;-72
2022/09/24 03:32:12;;;;;;;7.15;3.83;;;;;;;8.59;85.76;100843.94;5012992;28;20542;-72
2022/09/24 03:34:37;;;;;;;6.10;3.85;;;;;;;8.83;85.13;100864.00;5013222;28;20116;-72
2022/09/24 03:37:03;;;;;;;4.93;3.80;;;;;;;8.81;84.55;100871.66;5013115;28;20030;-76
2022/09/24 03:39:28;;;;;;;6.15;4.20;;;;;;;8.78;85.06;100862.91;5013205;28;20095;-72
2022/09/24 03:41:54;;;;;;;6.70;3.97;;;;;;;8.69;85.64;100858.19;5013067;28;20037;-75
2022/09/24 03:44:19;;;;;;;4.72;3.85;;;;;;;8.81;85.43;100873.34;5013088;28;20029;-69
2022/09/24 03:46:44;;;;;;;5.80;4.15;;;;;;;8.81;85.23;100873.34;5012864;28;20452;-72
2022/09/24 03:49:10;;;;;;;5.72;4.00;;;;;;;8.71;85.24;100866.84;5028055;28;20394;-71
2022/09/24 03:51:35;;;;;;;6.18;4.40;;;;;;;8.63;85.78;100875.88;5013157;28;20550;-72
2022/09/24 03:54:01;;;;;;;5.35;4.38;;;;;;;8.51;86.09;100873.53;5012676;28;20475;-70
2022/09/24 03:56:26;;;;;;;6.10;4.47;;;;;;;8.33;86.67;100858.88;5012514;28;20026;-71
2022/09/24 03:58:52;;;;;;;5.47;4.40;;;;;;;8.45;86.73;100886.97;5012850;28;20026;-69
2022/09/24 04:01:20;;;;;;;5.53;4.18;;;;;;;8.39;86.77;100891.78;5012464;28;20022;-72
2022/09/24 04:03:46;;;;;;;5.15;4.05;;;;;;;8.32;87.08;100884.53;5012847;28;20108;-74
2022/09/24 04:06:11;;;;;;;7.35;4.53;;;;;;;7.96;87.65;100835.50;5012527;28;20021;-70
2022/09/24 04:08:37;;;;;;;6.65;4.45;;;;;;;8.11;88.35;100890.28;5012398;28;20029;-71
2022/09/24 04:11:03;;;;;;;6.18;4.18;;;;;;;8.04;88.75;100895.94;5012501;28;20288;-72
2022/09/24 04:13:28;;;;;;;5.85;4.53;;;;;;;7.93;89.21;100893.66;5012525;28;20053;-73
2022/09/24 04:15:54;;;;;;;7.20;4.40;;;;;;;7.89;89.80;100903.69;5012408;28;20045;-73
2022/09/24 04:18:20;;;;;;;5.22;4.30;;;;;;;7.77;90.55;100903.91;5012297;28;20052;-74
2022/09/24 04:20:45;;;;;;;5.63;4.72;;;;;;;7.75;90.90;100908.97;5012262;28;20045;-74
2022/09/24 04:23:12;;;;;;;6.00;4.32;;;;;;;7.71;91.46;100909.59;5012155;28;20025;-75
2022/09/24 04:25:39;;;;;;;6.32;4.60;;;;;;;7.65;91.87;100908.34;5011974;28;20034;-72
2022/09/24 04:28:07;;;;;;;5.78;4.53;;;;;;;7.72;92.33;100919.06;5027261;28;20026;-72
2022/09/24 04:30:34;;;;;;;5.68;4.45;;;;;;;7.83;92.26;100914.53;5012030;28;20052;-72
2022/09/24 04:33:01;;;;;;;10.02;5.30;;;;;;;7.96;91.80;100926.34;5012058;28;20026;-72
2022/09/24 04:35:28;;;;;;;7.63;4.90;;;;;;;8.02;91.62;100930.97;5012272;28;20069;-71
2022/09/24 04:37:54;;;;;;;6.30;4.28;;;;;;;8.09;91.81;100927.94;5012038;28;20088;-76
2022/09/24 04:40:20;;;;;;;5.88;4.82;;;;;;;8.17;91.54;100925.75;5011572;28;20112;-72
2022/09/24 04:42:47;;;;;;;9.77;5.57;;;;;;;8.22;91.35;100932.94;5012180;28;20185;-72
2022/09/24 04:45:16;;;;;;;23.02;15.98;;;;;;;8.23;91.44;100929.53;5011816;28;20455;-74
2022/09/24 04:47:42;;;;;;;80.22;39.33;;;;;;;8.17;91.89;100933.47;5011595;28;20060;-73
2022/09/24 04:50:10;;;;;;;44.05;28.88;;;;;;;8.32;91.28;100930.84;5011986;28;20033;-73
2022/09/24 04:52:36;;;;;;;17.70;13.48;;;;;;;8.44;90.85;100936.66;5011447;28;20091;-73
2022/09/24 04:55:01;;;;;;;8.25;5.97;;;;;;;8.51;90.49;100943.94;5011794;28;20468;-76
2022/09/24 04:57:33;;;;;;;8.18;5.57;;;;;;;8.60;90.41;100940.03;5011507;28;20423;-74
2022/09/24 04:59:59;;;;;;;7.60;4.80;;;;;;;8.71;90.12;100941.50;5010287;28;20080;-71
2022/09/24 05:02:24;;;;;;;6.78;4.60;;;;;;;8.82;89.64;100947.19;5011142;28;20030;-74
2022/09/24 05:04:50;;;;;;;5.95;4.38;;;;;;;8.90;89.59;100941.63;5042049;28;20026;-73
2022/09/24 05:07:15;;;;;;;6.55;4.50;;;;;;;8.98;89.16;100944.59;5010351;28;20048;-75
2022/09/24 05:09:40;;;;;;;5.25;4.18;;;;;;;9.05;89.05;100932.94;5011138;28;20030;-72
2022/09/24 05:12:06;;;;;;;6.13;4.22;;;;;;;9.23;88.58;100944.16;5011503;28;20033;-71
2022/09/24 05:14:31;;;;;;;5.43;4.32;;;;;;;9.18;87.77;100904.41;5011163;28;20516;-72
2022/09/24 05:16:57;;;;;;;6.30;4.32;;;;;;;9.46;86.48;100931.53;5011283;28;20503;-70
2022/09/24 05:19:22;;;;;;;7.70;4.20;;;;;;;9.70;86.12;100951.56;5010987;28;20109;-75
2022/09/24 05:21:48;;;;;;;19.30;13.18;;;;;;;9.83;85.99;100953.03;5010701;28;20034;-70
2022/09/24 05:24:14;;;;;;;9.45;5.47;;;;;;;9.93;84.83;100954.34;5009749;28;20033;-71
2022/09/24 05:29:24;;;;;;;5.28;4.35;;;;;;;10.15;84.06;100956.25;4999466;28;20048;-73
2022/09/24 05:31:49;;;;;;;8.63;4.50;;;;;;;10.06;83.34;100930.03;5010952;28;20034;-71
2022/09/24 05:34:15;;;;;;;7.90;4.80;;;;;;;10.23;83.54;100951.44;5009226;28;20408;-69
2022/09/24 05:36:42;;;;;;;7.38;4.43;;;;;;;10.27;83.25;100943.03;5010239;28;20033;-74
2022/09/24 05:39:08;;;;;;;5.47;4.82;;;;;;;10.48;83.29;100951.78;5006815;28;20058;-72
2022/09/24 05:41:34;;;;;;;6.10;5.15;;;;;;;10.65;82.48;100954.22;5010601;28;20057;-73
2022/09/24 05:43:59;;;;;;;8.15;4.38;;;;;;;10.75;82.05;100943.47;5009634;28;20121;-73
2022/09/24 05:46:25;;;;;;;7.03;4.70;;;;;;;10.87;81.14;100952.63;5010365;28;20459;-74
2022/09/24 05:48:50;;;;;;;5.90;4.00;;;;;;;10.95;80.48;100954.72;5010083;28;20025;-71
2022/09/24 05:51:16;;;;;;;6.18;4.43;;;;;;;11.02;80.25;100942.06;5009756;28;20530;-71
2022/09/24 05:53:41;;;;;;;6.57;4.85;;;;;;;11.06;79.61;100947.41;5010248;28;20511;-73
2022/09/24 05:56:06;;;;;;;6.15;3.88;;;;;;;11.28;79.09;100969.00;5010544;28;20029;-73
2022/09/24 05:58:32;;;;;;;6.15;4.05;;;;;;;11.33;78.57;100957.16;5009936;28;20032;-73
2022/09/24 06:01:00;;;;;;;6.20;3.88;;;;;;;11.56;77.85;100967.53;5009959;28;20030;-72
2022/09/24 06:03:26;;;;;;;8.15;4.18;;;;;;;11.63;77.64;100954.91;5008366;28;20440;-70
2022/09/24 06:05:51;;;;;;;9.48;5.50;;;;;;;11.77;75.87;100960.63;5009950;28;20068;-71
2022/09/24 06:08:18;;;;;;;8.77;5.07;;;;;;;11.65;77.09;100973.06;5010217;28;20056;-70
2022/09/24 06:10:46;;;;;;;6.22;4.30;;;;;;;11.54;77.90;100976.94;5009970;28;20026;-74
2022/09/24 06:13:13;;;;;;;8.27;4.32;;;;;;;11.12;78.50;100932.16;5009889;28;20034;-74
2022/09/24 06:15:41;;;;;;;7.80;4.20;;;;;;;11.68;76.85;100980.09;5007707;28;20124;-68
2022/09/24 06:18:07;;;;;;;5.85;3.65;;;;;;;11.81;76.37;100980.66;5010031;28;20037;-74
2022/09/24 06:20:33;;;;;;;5.00;3.72;;;;;;;11.62;76.65;100986.78;5010955;28;20033;-75
2022/09/24 06:22:59;;;;;;;7.32;4.05;;;;;;;11.80;75.98;100984.06;5010798;28;20412;-72
2022/09/24 06:25:25;;;;;;;5.55;3.67;;;;;;;11.94;75.89;101001.84;5010709;28;20049;-73
2022/09/24 06:28:00;;;;;;;6.95;4.00;;;;;;;11.98;76.62;100994.28;5010534;28;20033;-73
2022/09/24 06:30:27;;;;;;;4.78;3.50;;;;;;;12.17;75.44;100996.72;5010442;28;20037;-70
2022/09/24 06:32:54;;;;;;;9.18;4.07;;;;;;;12.43;74.93;101001.19;5010693;28;20034;-70
2022/09/24 06:35:19;;;;;;;5.32;3.67;;;;;;;12.70;72.98;101002.19;5010013;28;20029;-72
2022/09/24 06:37:47;;;;;;;11.75;6.28;;;;;;;12.91;71.78;100995.19;5010592;28;20038;-74
2022/09/24 06:40:12;;;;;;;5.57;3.65;;;;;;;13.14;68.40;100989.91;5010425;28;20034;-71
2022/09/24 06:42:38;;;;;;;5.72;3.10;;;;;;;13.01;68.35;100998.97;5010354;28;20045;-72
2022/09/24 06:45:03;;;;;;;6.00;3.20;;;;;;;12.86;68.83;100998.41;5010635;28;20038;-74
2022/09/24 06:47:29;;;;;;;6.35;2.90;;;;;;;12.75;67.77;100998.91;5010314;28;20064;-70
2022/09/24 06:49:54;;;;;;;4.22;2.85;;;;;;;12.75;68.42;101004.09;5010242;28;20137;-74
2022/09/24 06:52:20;;;;;;;5.68;3.47;;;;;;;12.75;69.77;101003.22;5010331;28;20026;-71
2022/09/24 06:54:45;;;;;;;4.35;3.00;;;;;;;12.94;67.92;101002.19;5010470;28;20119;-75
2022/09/24 06:57:11;;;;;;;4.72;3.00;;;;;;;13.05;67.43;101008.63;5010252;28;20049;-71
2022/09/24 06:59:36;;;;;;;12.20;3.30;;;;;;;13.15;66.29;101001.19;5010180;28;20026;-74
2022/09/24 07:02:01;;;;;;;4.95;3.20;;;;;;;13.03;66.56;101009.41;5012064;28;20411;-69
2022/09/24 07:04:27;;;;;;;5.63;3.72;;;;;;;12.75;67.58;100938.47;5045255;28;20469;-69
2022/09/24 07:09:39;;;;;;;4.47;3.30;;;;;;;13.41;66.96;101008.16;5013829;28;20053;-71
2022/09/24 07:12:07;;;;;;;4.40;3.33;;;;;;;13.64;65.83;101009.78;5013769;28;20026;-70
2022/09/24 07:14:32;;;;;;;4.43;3.00;;;;;;;13.53;65.18;101007.72;5044335;28;20523;-72
2022/09/24 07:16:57;;;;;;;5.25;3.00;;;;;;;13.44;64.93;100981.44;5013908;28;20026;-70
2022/09/24 07:19:23;;;;;;;5.90;3.03;;;;;;;13.82;64.16;101007.78;5028913;28;20117;-71
2022/09/24 07:21:48;;;;;;;4.95;3.50;;;;;;;14.01;64.91;101008.38;5044595;28;20061;-71
2022/09/24 07:24:13;;;;;;;5.10;3.00;;;;;;;14.23;63.16;101002.09;5028850;28;20069;-69
2022/09/24 07:26:39;;;;;;;4.93;3.80;;;;;;;14.62;62.03;101013.66;5013558;28;20026;-74
2022/09/24 07:29:04;;;;;;;5.28;3.20;;;;;;;14.92;60.11;100999.81;5013501;28;20030;-71
2022/09/24 07:31:29;;;;;;;4.78;3.20;;;;;;;15.16;59.64;101003.06;5013602;28;20472;-73
2022/09/24 07:33:55;;;;;;;4.07;2.80;;;;;;;15.45;57.49;100996.84;5028645;28;20026;-70
2022/09/24 07:36:21;;;;;;;5.35;2.92;;;;;;;15.51;57.59;100999.63;5013385;28;20080;-70
2022/09/24 07:38:47;;;;;;;4.43;2.95;;;;;;;15.48;57.36;101003.03;5013222;28;20072;-72
2022/09/24 07:41:12;;;;;;;5.85;2.90;;;;;;;15.53;57.88;100990.13;5013135;28;20021;-70
2022/09/24 07:43:37;;;;;;;4.78;2.80;;;;;;;15.34;58.93;100989.66;5013228;28;20515;-73
2022/09/24 07:46:03;;;;;;;5.20;2.90;;;;;;;15.34;56.97;100992.28;5013131;28;20048;-76
2022/09/24 07:48:28;;;;;;;5.13;3.10;;;;;;;15.56;57.13;100985.00;5013129;28;20030;-70
2022/09/24 07:50:54;;;;;;;7.35;3.33;;;;;;;15.73;56.72;101000.16;5013109;28;20041;-70
2022/09/24 07:53:20;;;;;;;5.22;2.85;;;;;;;15.94;55.89;100992.88;5013216;28;20022;-72
2022/09/24 07:55:46;;;;;;;3.92;2.97;;;;;;;16.24;55.07;100991.81;5013155;28;20495;-70
2022/09/24 07:58:13;;;;;;;4.28;3.00;;;;;;;16.05;54.87;100985.34;5012893;28;20026;-71
2022/09/24 08:00:39;;;;;;;3.90;2.88;;;;;;;15.74;55.40;100981.06;5012769;28;20109;-74
2022/09/24 08:03:05;;;;;;;5.50;3.10;;;;;;;15.89;55.11;100986.69;5028025;28;20022;-71
2022/09/24 08:05:31;;;;;;;5.82;3.22;;;;;;;16.13;55.50;100985.50;5012748;28;20076;-70
2022/09/24 08:07:58;;;;;;;6.68;3.38;;;;;;;16.27;54.21;100986.66;5012631;28;20018;-74
2022/09/24 08:10:25;;;;;;;3.97;2.65;;;;;;;16.25;54.52;100985.78;5012638;28;20065;-74
2022/09/24 08:12:50;;;;;;;5.35;2.90;;;;;;;16.44;53.50;100986.16;5012588;28;20037;-74
2022/09/24 08:15:16;;;;;;;6.03;3.20;;;;;;;16.34;54.40;100980.75;5012730;28;20108;-71
2022/09/24 08:17:42;;;;;;;4.10;2.85;;;;;;;16.55;53.38;100979.44;4994259;28;20030;-73
2022/09/24 08:20:08;;;;;;;5.47;3.30;;;;;;;16.13;53.10;100941.22;5011414;28;20583;-71
2022/09/24 08:22:34;;;;;;;7.30;3.58;;;;;;;16.46;54.30;100980.16;5012388;28;20464;-69
2022/09/24 08:25:01;;;;;;;5.78;3.03;;;;;;;16.59;53.36;100964.75;5012529;28;20416;-74
2022/09/24 08:27:27;;;;;;;3.75;2.72;;;;;;;16.83;53.93;100969.56;5012322;28;20120;-72
2022/09/24 08:29:55;;;;;;;4.55;3.20;;;;;;;16.90;55.46;100963.63;5012426;28;20546;-73
2022/09/24 08:32:20;;;;;;;10.13;3.13;;;;;;;17.16;51.80;100965.88;5012192;28;20022;-71
2022/09/24 08:34:46;;;;;;;4.45;3.05;;;;;;;17.51;50.33;100954.25;5017389;28;20057;-73
2022/09/24 08:37:12;;;;;;;5.15;3.20;;;;;;;17.77;48.94;100954.69;5012206;28;20626;-76
2022/09/24 08:39:38;;;;;;;5.65;3.17;;;;;;;17.95;48.70;100949.75;5012078;28;20032;-73
2022/09/24 08:42:06;;;;;;;5.30;2.92;;;;;;;18.15;47.71;100945.66;5027633;28;20022;-75
2022/09/24 08:47:42;;;;;;;3.53;2.50;;;;;;;18.45;46.09;100944.31;5011958;28;20080;-71
2022/09/24 08:50:20;;;;;;;4.28;2.40;;;;;;;18.38;44.81;100953.78;5042490;28;20489;-70
2022/09/24 08:52:57;;;;;;;5.70;2.30;;;;;;;18.10;45.48;100942.97;5012229;28;20126;-74
2022/09/24 08:55:35;;;;;;;3.60;2.50;;;;;;;18.09;46.05;100936.00;5012272;28;20033;-70
2022/09/24 08:58:11;;;;;;;3.55;2.60;;;;;;;17.92;46.44;100933.13;5011799;28;20026;-72
2022/09/24 09:00:54;;;;;;;7.00;2.65;;;;;;;17.98;45.89;100935.88;5011825;28;20559;-69
2022/09/24 09:03:43;;;;;;;5.63;2.60;;;;;;;18.25;45.99;100931.84;5025916;28;20040;-70
2022/09/24 09:06:30;;;;;;;6.68;3.10;;;;;;;18.55;45.29;100931.34;5011560;28;20479;-72
2022/09/24 09:09:18;;;;;;;3.60;2.25;;;;;;;18.71;43.54;100927.16;5011545;28;20026;-76
2022/09/24 09:11:50;;;;;;;2.92;2.17;;;;;;;18.46;44.08;100922.53;5009141;28;20154;-71
2022/09/24 09:14:24;;;;;;;2.42;2.10;;;;;;;18.39;44.00;100925.06;5009250;28;20428;-76
2022/09/24 09:17:14;;;;;;;3.40;2.47;;;;;;;18.36;44.47;100877.97;5009151;28;20052;-74
2022/09/24 09:19:41;;;;;;;3.42;2.45;;;;;;;18.53;43.87;100882.50;5008977;28;20396;-71
2022/09/24 09:22:15;;;;;;;3.90;2.38;;;;;;;18.54;43.23;100877.31;5008318;28;20466;-73
2022/09/24 09:24:52;;;;;;;2.92;1.77;;;;;;;18.64;40.61;100901.81;5008741;28;20110;-76
2022/09/24 09:27:19;;;;;;;3.88;2.28;;;;;;;18.67;40.68;100895.75;5008148;28;20480;-71
2022/09/24 09:29:47;;;;;;;2.33;2.05;;;;;;;18.69;37.38;100913.22;5007996;28;20037;-69
2022/09/24 09:32:43;;;;;;;3.83;2.83;;;;;;;18.85;39.50;100908.97;5008441;28;20068;-72
2022/09/24 09:35:22;;;;;;;2.70;1.92;;;;;;;18.87;37.99;100903.78;4953036;28;20126;-70
2022/09/24 09:38:17;;;;;;;5.03;2.50;;;;;;;19.28;35.71;100895.47;4968284;28;20031;-70
2022/09/24 09:41:07;;;;;;;3.58;1.80;;;;;;;19.16;33.97;100901.44;4967325;28;20604;-69
2022/09/24 09:43:34;;;;;;;3.25;1.90;;;;;;;19.39;32.52;100893.78;4968532;28;20075;-69
2022/09/24 09:46:32;;;;;;;3.67;2.00;;;;;;;19.77;35.62;100897.53;4976758;28;20192;-71
2022/09/24 09:49:04;;;;;;;3.65;2.67;;;;;;;19.56;34.38;100901.78;4963763;28;20074;-69
2022/09/24 09:51:39;;;;;;;2.50;2.08;;;;;;;19.71;32.75;100901.00;4968607;28;20097;-71
2022/09/24 09:54:05;;;;;;;3.55;2.08;;;;;;;19.62;34.34;100893.06;4967476;28;20038;-70
2022/09/24 09:56:50;;;;;;;4.90;2.40;;;;;;;19.39;34.67;100890.31;4966671;28;20050;-73
2022/09/24 09:59:21;;;;;;;2.45;2.03;;;;;;;19.69;34.59;100873.91;4967812;28;20035;-77
2022/09/24 10:01:48;;;;;;;6.25;1.90;;;;;;;19.83;35.04;100886.25;4968726;28;20031;-76
2022/09/24 10:04:36;;;;;;;4.53;1.63;;;;;;;19.52;30.57;100886.03;4968449;28;20030;-72
2022/09/24 10:07:11;;;;;;;3.40;2.22;;;;;;;19.68;31.90;100885.25;4970016;28;20093;-74
2022/09/24 10:09:38;;;;;;;4.63;1.85;;;;;;;19.34;32.67;100860.56;4968364;28;20510;-71
2022/09/24 10:12:07;;;;;;;4.88;2.58;;;;;;;19.78;31.61;100891.44;4986637;28;20041;-76
2022/09/24 10:14:33;;;;;;;12.23;11.02;;;;;;;19.87;30.61;100888.88;5009873;28;20022;-71
2022/09/24 10:17:04;;;;;;;2.42;1.73;;;;;;;20.07;30.76;100880.25;5009566;28;20033;-69
2022/09/24 10:19:34;;;;;;;1.90;1.70;;;;;;;19.98;29.91;100875.84;5009656;28;20026;-73
2022/09/24 10:22:13;;;;;;;1.98;1.50;;;;;;;20.57;28.89;100865.53;5012222;28;20026;-69
2022/09/24 10:24:40;;;;;;;;;;;;;;;20.49;29.48;100869.91;5023502;28;20087;-70
2022/09/24 10:27:11;;;;;;;3.60;1.90;;;;;;;20.92;30.27;100863.88;5009798;28;19972;-71
2022/09/24 10:32:23;;;;;;;2.95;1.80;;;;;;;20.82;28.54;100813.13;5009675;28;20073;-73
2022/09/24 10:35:00;;;;;;;3.42;2.55;;;;;;;20.83;29.11;100835.88;5009577;28;20472;-70
2022/09/24 10:37:27;;;;;;;1.70;1.60;;;;;;;21.02;29.16;100852.50;4997736;28;20089;-68
2022/09/24 10:40:22;;;;;;;2.95;2.03;;;;;;;21.02;28.35;100849.88;4993766;28;20026;-66
2022/09/24 10:43:01;;;;;;;3.80;1.83;;;;;;;21.41;27.66;100840.22;5009276;28;20145;-69
2022/09/24 10:45:50;;;;;;;5.28;3.92;;;;;;;21.43;28.10;100834.94;4976380;28;20480;-69
2022/09/24 10:48:18;;;;;;;5.43;2.78;;;;;;;21.72;28.09;100834.91;5008038;28;20037;-67
2022/09/24 10:51:05;;;;;;;3.80;1.85;;;;;;;21.78;26.59;100819.13;5005189;28;20763;-68
2022/09/24 10:53:53;;;;;;;4.07;1.55;;;;;;;21.88;24.82;100824.34;5001623;28;20046;-68
2022/09/24 10:56:37;;;;;;;3.10;1.63;;;;;;;21.95;24.80;100784.00;4998917;28;20069;-66
2022/09/24 10:59:36;;;;;;;1.83;1.60;;;;;;;21.89;25.09;100820.84;5006335;28;20524;-68
2022/09/24 11:02:27;;;;;;;1.77;1.47;;;;;;;22.34;24.48;100816.19;5010901;28;20030;-69
2022/09/24 11:04:58;;;;;;;7.45;4.28;;;;;;;21.58;25.34;100815.69;5003015;28;20044;-69
2022/09/24 11:07:59;;;;;;;1.73;1.38;;;;;;;21.12;25.69;100807.00;5010206;28;20076;-71
2022/09/24 11:10:57;;;;;;;1.92;1.67;;;;;;;21.07;24.34;100816.63;4920235;29;20052;-68
2022/09/24 11:13:45;;;;;;;4.47;2.40;;;;;;;21.68;24.43;100811.28;4913623;29;20040;-67
2022/09/24 11:16:11;;;;;;;3.08;2.00;;;;;;;21.59;23.77;100762.25;4915944;29;20044;-70
2022/09/24 11:18:54;;;;;;;3.25;1.65;;;;;;;21.65;23.73;100799.88;4918568;29;20766;-69
2022/09/24 11:22:06;;;;;;;4.47;1.90;;;;;;;21.43;24.43;100800.81;4918944;29;20152;-72
2022/09/24 11:24:35;;;;;;;6.18;4.18;;;;;;;21.97;24.82;100787.50;4934308;29;20189;-68
2022/09/24 11:27:37;;;;;;;16.92;12.48;;;;;;;21.67;24.72;100788.50;4946224;29;20035;-69
2022/09/24 11:30:13;;;;;;;13.60;9.65;;;;;;;21.79;24.30;100784.09;4934624;29;20122;-71
2022/09/24 11:32:57;;;;;;;7.07;3.60;;;;;;;21.60;25.17;100780.63;4935687;29;20034;-73
2022/09/24 11:35:57;;;;;;;3.25;1.85;;;;;;;21.62;24.03;100781.53;4949096;29;20047;-67
2022/09/24 11:38:37;;;;;;;2.90;2.00;;;;;;;22.12;24.16;100770.78;4895398;29;20570;-69
2022/09/24 11:41:14;;;;;;;4.50;2.00;;;;;;;22.29;25.20;100770.66;4896250;29;20520;-68
2022/09/24 11:44:15;;;;;;;4.65;2.70;;;;;;;22.23;25.02;100768.06;4901277;29;20072;-70
2022/09/24 11:46:59;;;;;;;3.92;2.00;;;;;;;22.40;25.24;100773.25;4908002;29;20044;-72
2022/09/24 11:49:45;;;;;;;2.72;1.95;;;;;;;22.77;24.37;100773.81;4916696;29;20050;-72
2022/09/24 11:52:32;;;;;;;2.72;2.20;;;;;;;23.02;23.40;100759.56;4920152;29;20028;-70
2022/09/24 11:55:31;;;;;;;5.65;3.25;;;;;;;22.97;22.98;100772.78;4913753;29;20118;-68
2022/09/24 11:58:12;;;;;;;4.68;2.40;;;;;;;22.68;23.02;100771.28;4912294;29;20533;-68
2022/09/24 12:01:05;;;;;;;4.57;3.05;;;;;;;22.90;22.63;100771.06;4916569;29;20105;-68